Aérodrome :
LOGIN :

S'inscrire | Disclaimer

   EN    FR    IT 

 










Légende :    VFR   VFR Marginal   IFR   IFR Intensif   IFR Très Intensif
Visi : 
Plafond : 
>= 8 km
>= 3000ft
5 à 8 km
1000 à 3000 ft
1500m à 5 km
500 à 1000 ft
800 à 1500m
200 à 500 ft
< 800m
< 200 ft
Symboles :   Orages  Brouillard  Fortes neiges  Fortes précipitations  Vent > 20 kt
SIGMETs :   Divers  Orages  Givrage  Turbulence  Onde Orograph.  Cendres Volcan.






- Altitude de l'aérodrome : 160 ft
- Code IATA : FMO


EDDG - Münster Osnabrück Int.

DERNIER METAR :
  • 220350Z 18005KT 150V220 9999 FEW022 BKN037 11/08 Q1021 NOSIG

METARs EXPIRÉS :
  • 220320Z 18005KT 9999 BKN022 11/08 Q1021 NOSIG
  • 220250Z 18005KT 9999 BKN022 11/08 Q1021 NOSIG
  • 220220Z 17005KT 140V200 9999 BKN021 11/08 Q1021 NOSIG
  • 220150Z 16005KT 130V190 9999 FEW021 BKN038 11/08 Q1021 NOSIG
  • 220120Z 15003KT 9999 BKN036 10/08 Q1021 NOSIG

TAF TAF EDDG
Valide du 22 à 00h jusqu'au 23 à 00h UTC


212300Z 2200/2224 16004KT 9999 BKN030
PROB30
TEMPO 2204/2211 BKN010
BECMG 2206/2209 22007KT
BECMG 2214/2216 VRB02KT
BECMG 2217/2219 2500 BR
BECMG 2219/2222 0800 FG
PROB30
TEMPO 2221/2224 0400 FG



MET'MAP, la Météo Aéronautique d'un coup d'oeil ! - Copyright ORBIFLY Décembre 2007 - Disclaimer

ORBIFLY MET'MAP TEAM :

Programmation & Développement : Alexandra Zaïnal
Conception & Développement : Baudouin d'Aumeries
Co-Programmation & Développement : Marc-Olivier Méhu
Soutien technique & logistique : Manuel Goepfert

Contact : metmap@orbifly.com




SOURCES & CREDITS :

   NOAA